sensor_id;sensor_type;location;lat;lon;timestamp;P1;durP1;ratioP1;P2;durP2;ratioP2
34900;SDS011;21112;51.976;5.660;2022-07-24T00:00:40;8.30;;;4.13;;
34900;SDS011;21112;51.976;5.660;2022-07-24T00:03:07;6.03;;;2.92;;
34900;SDS011;21112;51.976;5.660;2022-07-24T00:05:34;6.05;;;2.60;;
34900;SDS011;21112;51.976;5.660;2022-07-24T00:08:01;4.70;;;2.45;;
34900;SDS011;21112;51.976;5.660;2022-07-24T00:10:29;6.70;;;2.38;;
34900;SDS011;21112;51.976;5.660;2022-07-24T00:12:56;5.90;;;2.72;;
34900;SDS011;21112;51.976;5.660;2022-07-24T00:15:23;5.05;;;2.40;;
34900;SDS011;21112;51.976;5.660;2022-07-24T00:17:49;5.93;;;2.80;;
34900;SDS011;21112;51.976;5.660;2022-07-24T00:20:16;4.00;;;2.25;;
34900;SDS011;21112;51.976;5.660;2022-07-24T00:22:42;4.25;;;2.38;;
34900;SDS011;21112;51.976;5.660;2022-07-24T00:25:09;4.95;;;2.35;;
34900;SDS011;21112;51.976;5.660;2022-07-24T00:27:37;6.28;;;2.70;;
34900;SDS011;21112;51.976;5.660;2022-07-24T00:30:04;6.95;;;3.42;;
34900;SDS011;21112;51.976;5.660;2022-07-24T00:32:31;7.38;;;2.58;;
34900;SDS011;21112;51.976;5.660;2022-07-24T00:34:57;5.28;;;2.30;;
34900;SDS011;21112;51.976;5.660;2022-07-24T00:37:24;5.25;;;2.47;;
34900;SDS011;21112;51.976;5.660;2022-07-24T00:39:52;4.28;;;2.50;;
34900;SDS011;21112;51.976;5.660;2022-07-24T00:42:19;5.95;;;2.60;;
34900;SDS011;21112;51.976;5.660;2022-07-24T00:44:47;5.90;;;2.45;;
34900;SDS011;21112;51.976;5.660;2022-07-24T00:47:13;4.80;;;2.42;;
34900;SDS011;21112;51.976;5.660;2022-07-24T00:49:40;7.90;;;4.32;;
34900;SDS011;21112;51.976;5.660;2022-07-24T00:52:07;5.90;;;2.70;;
34900;SDS011;21112;51.976;5.660;2022-07-24T00:54:33;5.85;;;2.92;;
34900;SDS011;21112;51.976;5.660;2022-07-24T00:57:00;5.32;;;2.60;;
34900;SDS011;21112;51.976;5.660;2022-07-24T00:59:26;7.13;;;2.70;;
34900;SDS011;21112;51.976;5.660;2022-07-24T01:01:55;5.13;;;2.42;;
34900;SDS011;21112;51.976;5.660;2022-07-24T01:04:22;5.80;;;2.72;;
34900;SDS011;21112;51.976;5.660;2022-07-24T01:06:50;6.57;;;2.90;;
34900;SDS011;21112;51.976;5.660;2022-07-24T01:09:17;5.40;;;2.50;;
34900;SDS011;21112;51.976;5.660;2022-07-24T01:11:43;4.60;;;2.60;;
34900;SDS011;21112;51.976;5.660;2022-07-24T01:14:10;4.70;;;2.30;;
34900;SDS011;21112;51.976;5.660;2022-07-24T01:16:37;7.28;;;2.95;;
34900;SDS011;21112;51.976;5.660;2022-07-24T01:19:05;5.15;;;2.40;;
34900;SDS011;21112;51.976;5.660;2022-07-24T01:21:33;8.82;;;2.80;;
34900;SDS011;21112;51.976;5.660;2022-07-24T01:24:00;5.30;;;2.67;;
34900;SDS011;21112;51.976;5.660;2022-07-24T01:26:27;6.28;;;2.80;;
34900;SDS011;21112;51.976;5.660;2022-07-24T01:28:53;4.43;;;2.15;;
34900;SDS011;21112;51.976;5.660;2022-07-24T01:31:20;6.97;;;2.63;;
34900;SDS011;21112;51.976;5.660;2022-07-24T01:33:46;7.82;;;3.83;;
34900;SDS011;21112;51.976;5.660;2022-07-24T01:36:13;5.53;;;2.80;;
34900;SDS011;21112;51.976;5.660;2022-07-24T01:38:41;5.05;;;2.70;;
34900;SDS011;21112;51.976;5.660;2022-07-24T01:41:08;8.60;;;4.43;;
34900;SDS011;21112;51.976;5.660;2022-07-24T01:43:34;10.07;;;4.07;;
34900;SDS011;21112;51.976;5.660;2022-07-24T01:46:01;6.53;;;3.00;;
34900;SDS011;21112;51.976;5.660;2022-07-24T01:48:27;6.30;;;2.90;;
34900;SDS011;21112;51.976;5.660;2022-07-24T01:50:54;5.55;;;2.35;;
34900;SDS011;21112;51.976;5.660;2022-07-24T01:53:21;7.13;;;3.25;;
34900;SDS011;21112;51.976;5.660;2022-07-24T01:55:50;6.18;;;2.70;;
34900;SDS011;21112;51.976;5.660;2022-07-24T01:58:18;4.78;;;2.40;;
34900;SDS011;21112;51.976;5.660;2022-07-24T02:00:44;5.73;;;2.60;;
34900;SDS011;21112;51.976;5.660;2022-07-24T02:03:11;5.50;;;2.67;;
34900;SDS011;21112;51.976;5.660;2022-07-24T02:05:38;7.60;;;3.70;;
34900;SDS011;21112;51.976;5.660;2022-07-24T02:08:05;7.47;;;2.88;;
34900;SDS011;21112;51.976;5.660;2022-07-24T02:10:32;6.73;;;3.03;;
34900;SDS011;21112;51.976;5.660;2022-07-24T02:13:00;4.68;;;2.58;;
34900;SDS011;21112;51.976;5.660;2022-07-24T02:15:27;7.43;;;3.67;;
34900;SDS011;21112;51.976;5.660;2022-07-24T02:17:55;5.68;;;2.85;;
34900;SDS011;21112;51.976;5.660;2022-07-24T02:20:22;5.97;;;2.60;;
34900;SDS011;21112;51.976;5.660;2022-07-24T02:22:49;5.55;;;2.90;;
34900;SDS011;21112;51.976;5.660;2022-07-24T02:25:16;6.25;;;2.90;;
34900;SDS011;21112;51.976;5.660;2022-07-24T02:27:44;9.15;;;4.63;;
34900;SDS011;21112;51.976;5.660;2022-07-24T02:30:13;6.23;;;2.87;;
34900;SDS011;21112;51.976;5.660;2022-07-24T02:32:39;5.72;;;2.40;;
34900;SDS011;21112;51.976;5.660;2022-07-24T02:35:06;5.90;;;2.78;;
34900;SDS011;21112;51.976;5.660;2022-07-24T02:37:34;5.28;;;2.38;;
34900;SDS011;21112;51.976;5.660;2022-07-24T02:40:01;5.72;;;2.92;;
34900;SDS011;21112;51.976;5.660;2022-07-24T02:42:28;5.95;;;2.22;;
34900;SDS011;21112;51.976;5.660;2022-07-24T02:44:54;8.70;;;3.10;;
34900;SDS011;21112;51.976;5.660;2022-07-24T02:47:22;5.90;;;3.00;;
34900;SDS011;21112;51.976;5.660;2022-07-24T02:49:49;10.68;;;3.63;;
34900;SDS011;21112;51.976;5.660;2022-07-24T02:54:49;7.10;;;2.95;;
34900;SDS011;21112;51.976;5.660;2022-07-24T02:57:16;5.97;;;3.45;;
34900;SDS011;21112;51.976;5.660;2022-07-24T02:59:52;6.72;;;3.60;;
34900;SDS011;21112;51.976;5.660;2022-07-24T03:02:19;7.50;;;3.45;;
34900;SDS011;21112;51.976;5.660;2022-07-24T03:04:47;12.60;;;6.17;;
34900;SDS011;21112;51.976;5.660;2022-07-24T03:07:14;6.72;;;3.08;;
34900;SDS011;21112;51.976;5.660;2022-07-24T03:09:41;8.25;;;4.28;;
34900;SDS011;21112;51.976;5.660;2022-07-24T03:12:08;11.73;;;6.78;;
34900;SDS011;21112;51.976;5.660;2022-07-24T03:14:34;7.57;;;2.80;;
34900;SDS011;21112;51.976;5.660;2022-07-24T03:17:03;5.75;;;3.17;;
34900;SDS011;21112;51.976;5.660;2022-07-24T03:19:29;11.50;;;6.43;;
34900;SDS011;21112;51.976;5.660;2022-07-24T03:21:58;9.10;;;4.13;;
34900;SDS011;21112;51.976;5.660;2022-07-24T03:24:24;5.47;;;2.80;;
34900;SDS011;21112;51.976;5.660;2022-07-24T03:26:52;5.43;;;2.90;;
34900;SDS011;21112;51.976;5.660;2022-07-24T03:29:18;10.43;;;5.27;;
34900;SDS011;21112;51.976;5.660;2022-07-24T03:31:45;5.68;;;2.75;;
34900;SDS011;21112;51.976;5.660;2022-07-24T03:34:12;7.80;;;4.13;;
34900;SDS011;21112;51.976;5.660;2022-07-24T03:36:38;5.57;;;2.67;;
34900;SDS011;21112;51.976;5.660;2022-07-24T03:39:06;15.77;;;6.50;;
34900;SDS011;21112;51.976;5.660;2022-07-24T03:41:33;7.07;;;3.10;;
34900;SDS011;21112;51.976;5.660;2022-07-24T03:44:00;7.03;;;3.45;;
34900;SDS011;21112;51.976;5.660;2022-07-24T03:46:27;7.20;;;3.30;;
34900;SDS011;21112;51.976;5.660;2022-07-24T03:48:54;6.65;;;3.47;;
34900;SDS011;21112;51.976;5.660;2022-07-24T03:51:21;6.47;;;3.10;;
34900;SDS011;21112;51.976;5.660;2022-07-24T03:53:47;8.48;;;3.85;;
34900;SDS011;21112;51.976;5.660;2022-07-24T03:56:16;7.50;;;4.00;;
34900;SDS011;21112;51.976;5.660;2022-07-24T04:01:09;9.10;;;2.85;;
34900;SDS011;21112;51.976;5.660;2022-07-24T04:03:36;5.40;;;2.90;;
34900;SDS011;21112;51.976;5.660;2022-07-24T04:06:03;7.10;;;3.35;;
34900;SDS011;21112;51.976;5.660;2022-07-24T04:08:33;5.77;;;2.87;;
34900;SDS011;21112;51.976;5.660;2022-07-24T04:11:00;6.63;;;3.25;;
34900;SDS011;21112;51.976;5.660;2022-07-24T04:13:29;6.53;;;2.97;;
34900;SDS011;21112;51.976;5.660;2022-07-24T04:15:56;6.55;;;3.17;;
34900;SDS011;21112;51.976;5.660;2022-07-24T04:18:24;7.63;;;3.05;;
34900;SDS011;21112;51.976;5.660;2022-07-24T04:20:50;6.25;;;3.42;;
34900;SDS011;21112;51.976;5.660;2022-07-24T04:23:17;15.18;;;7.80;;
34900;SDS011;21112;51.976;5.660;2022-07-24T04:25:44;6.80;;;3.50;;
34900;SDS011;21112;51.976;5.660;2022-07-24T04:28:11;6.68;;;3.35;;
34900;SDS011;21112;51.976;5.660;2022-07-24T04:30:40;6.97;;;3.55;;
34900;SDS011;21112;51.976;5.660;2022-07-24T04:33:06;10.15;;;4.72;;
34900;SDS011;21112;51.976;5.660;2022-07-24T04:35:33;9.27;;;4.10;;
34900;SDS011;21112;51.976;5.660;2022-07-24T04:40:29;11.27;;;5.35;;
34900;SDS011;21112;51.976;5.660;2022-07-24T04:42:56;8.38;;;4.18;;
34900;SDS011;21112;51.976;5.660;2022-07-24T04:45:22;10.07;;;5.03;;
34900;SDS011;21112;51.976;5.660;2022-07-24T04:47:51;7.55;;;3.33;;
34900;SDS011;21112;51.976;5.660;2022-07-24T04:50:17;9.43;;;5.13;;
34900;SDS011;21112;51.976;5.660;2022-07-24T04:52:44;11.70;;;6.03;;
34900;SDS011;21112;51.976;5.660;2022-07-24T04:55:11;9.07;;;4.03;;
34900;SDS011;21112;51.976;5.660;2022-07-24T04:57:38;9.15;;;4.38;;
34900;SDS011;21112;51.976;5.660;2022-07-24T05:00:08;9.03;;;4.00;;
34900;SDS011;21112;51.976;5.660;2022-07-24T05:02:35;15.88;;;6.70;;
34900;SDS011;21112;51.976;5.660;2022-07-24T05:05:04;7.20;;;3.97;;
34900;SDS011;21112;51.976;5.660;2022-07-24T05:10:00;11.38;;;5.47;;
34900;SDS011;21112;51.976;5.660;2022-07-24T05:12:26;13.82;;;7.20;;
34900;SDS011;21112;51.976;5.660;2022-07-24T05:14:53;8.82;;;4.80;;
34900;SDS011;21112;51.976;5.660;2022-07-24T05:17:23;16.85;;;7.30;;
34900;SDS011;21112;51.976;5.660;2022-07-24T05:19:49;8.00;;;4.32;;
34900;SDS011;21112;51.976;5.660;2022-07-24T05:22:18;8.70;;;4.57;;
34900;SDS011;21112;51.976;5.660;2022-07-24T05:24:45;12.65;;;7.40;;
34900;SDS011;21112;51.976;5.660;2022-07-24T05:27:12;15.77;;;8.32;;
34900;SDS011;21112;51.976;5.660;2022-07-24T05:29:39;14.80;;;7.10;;
34900;SDS011;21112;51.976;5.660;2022-07-24T05:32:06;14.93;;;8.75;;
34900;SDS011;21112;51.976;5.660;2022-07-24T05:34:32;7.07;;;3.45;;
34900;SDS011;21112;51.976;5.660;2022-07-24T05:36:59;20.83;;;9.38;;
34900;SDS011;21112;51.976;5.660;2022-07-24T05:39:27;20.25;;;10.15;;
34900;SDS011;21112;51.976;5.660;2022-07-24T05:41:54;11.95;;;6.95;;
34900;SDS011;21112;51.976;5.660;2022-07-24T05:44:20;11.32;;;5.10;;
34900;SDS011;21112;51.976;5.660;2022-07-24T05:46:48;17.40;;;8.32;;
34900;SDS011;21112;51.976;5.660;2022-07-24T05:49:15;22.15;;;10.52;;
34900;SDS011;21112;51.976;5.660;2022-07-24T05:51:41;18.92;;;10.57;;
34900;SDS011;21112;51.976;5.660;2022-07-24T05:54:08;15.20;;;8.65;;
34900;SDS011;21112;51.976;5.660;2022-07-24T05:56:37;15.18;;;7.63;;
34900;SDS011;21112;51.976;5.660;2022-07-24T05:59:03;26.98;;;11.38;;
34900;SDS011;21112;51.976;5.660;2022-07-24T06:01:30;23.58;;;11.85;;
34900;SDS011;21112;51.976;5.660;2022-07-24T06:03:57;21.55;;;12.23;;
34900;SDS011;21112;51.976;5.660;2022-07-24T06:06:24;23.70;;;12.30;;
34900;SDS011;21112;51.976;5.660;2022-07-24T06:08:51;21.90;;;11.57;;
34900;SDS011;21112;51.976;5.660;2022-07-24T06:11:17;23.85;;;12.02;;
34900;SDS011;21112;51.976;5.660;2022-07-24T06:13:46;22.53;;;10.53;;
34900;SDS011;21112;51.976;5.660;2022-07-24T06:16:13;11.20;;;6.25;;
34900;SDS011;21112;51.976;5.660;2022-07-24T06:18:39;21.42;;;9.73;;
34900;SDS011;21112;51.976;5.660;2022-07-24T06:21:06;20.35;;;10.30;;
34900;SDS011;21112;51.976;5.660;2022-07-24T06:23:33;23.95;;;10.50;;
34900;SDS011;21112;51.976;5.660;2022-07-24T06:25:59;18.58;;;9.25;;
34900;SDS011;21112;51.976;5.660;2022-07-24T06:28:27;17.08;;;7.70;;
34900;SDS011;21112;51.976;5.660;2022-07-24T06:30:55;21.50;;;9.00;;
34900;SDS011;21112;51.976;5.660;2022-07-24T06:35:48;20.77;;;8.27;;
34900;SDS011;21112;51.976;5.660;2022-07-24T06:38:15;15.23;;;8.00;;
34900;SDS011;21112;51.976;5.660;2022-07-24T06:40:42;10.60;;;5.90;;
34900;SDS011;21112;51.976;5.660;2022-07-24T06:43:09;18.67;;;7.80;;
34900;SDS011;21112;51.976;5.660;2022-07-24T06:45:35;19.85;;;7.82;;
34900;SDS011;21112;51.976;5.660;2022-07-24T06:48:04;19.90;;;8.40;;
34900;SDS011;21112;51.976;5.660;2022-07-24T06:50:31;13.90;;;7.53;;
34900;SDS011;21112;51.976;5.660;2022-07-24T06:52:58;16.08;;;7.15;;
34900;SDS011;21112;51.976;5.660;2022-07-24T06:55:24;16.95;;;7.13;;
34900;SDS011;21112;51.976;5.660;2022-07-24T06:57:52;15.77;;;7.07;;
34900;SDS011;21112;51.976;5.660;2022-07-24T07:00:18;14.88;;;7.40;;
34900;SDS011;21112;51.976;5.660;2022-07-24T07:02:45;11.60;;;5.93;;
34900;SDS011;21112;51.976;5.660;2022-07-24T07:05:13;12.00;;;6.60;;
34900;SDS011;21112;51.976;5.660;2022-07-24T07:07:41;15.40;;;7.72;;
34900;SDS011;21112;51.976;5.660;2022-07-24T07:10:09;13.90;;;7.03;;
34900;SDS011;21112;51.976;5.660;2022-07-24T07:12:35;13.88;;;6.28;;
34900;SDS011;21112;51.976;5.660;2022-07-24T07:15:03;13.30;;;5.43;;
34900;SDS011;21112;51.976;5.660;2022-07-24T07:17:30;11.65;;;5.47;;
34900;SDS011;21112;51.976;5.660;2022-07-24T07:19:56;10.45;;;4.72;;
34900;SDS011;21112;51.976;5.660;2022-07-24T07:22:24;12.23;;;5.53;;
34900;SDS011;21112;51.976;5.660;2022-07-24T07:24:51;6.72;;;3.60;;
34900;SDS011;21112;51.976;5.660;2022-07-24T07:27:18;8.90;;;4.05;;
34900;SDS011;21112;51.976;5.660;2022-07-24T07:29:45;13.13;;;4.50;;
34900;SDS011;21112;51.976;5.660;2022-07-24T07:32:11;12.70;;;4.82;;
34900;SDS011;21112;51.976;5.660;2022-07-24T07:34:38;13.00;;;4.55;;
34900;SDS011;21112;51.976;5.660;2022-07-24T07:37:04;11.07;;;5.50;;
34900;SDS011;21112;51.976;5.660;2022-07-24T07:39:32;7.63;;;3.92;;
34900;SDS011;21112;51.976;5.660;2022-07-24T07:41:59;8.63;;;3.97;;
34900;SDS011;21112;51.976;5.660;2022-07-24T07:44:25;9.70;;;4.28;;
34900;SDS011;21112;51.976;5.660;2022-07-24T07:46:52;9.25;;;4.40;;
34900;SDS011;21112;51.976;5.660;2022-07-24T07:49:19;7.97;;;3.88;;
34900;SDS011;21112;51.976;5.660;2022-07-24T07:51:46;11.18;;;4.13;;
34900;SDS011;21112;51.976;5.660;2022-07-24T07:54:16;8.98;;;3.45;;
34900;SDS011;21112;51.976;5.660;2022-07-24T07:56:44;6.28;;;3.03;;
34900;SDS011;21112;51.976;5.660;2022-07-24T07:59:11;6.40;;;3.00;;
34900;SDS011;21112;51.976;5.660;2022-07-24T08:01:37;7.45;;;3.05;;
34900;SDS011;21112;51.976;5.660;2022-07-24T08:04:04;6.28;;;3.00;;
34900;SDS011;21112;51.976;5.660;2022-07-24T08:06:31;5.75;;;2.47;;
34900;SDS011;21112;51.976;5.660;2022-07-24T08:08:58;5.97;;;2.88;;
34900;SDS011;21112;51.976;5.660;2022-07-24T08:11:24;7.25;;;3.00;;
34900;SDS011;21112;51.976;5.660;2022-07-24T08:13:52;6.88;;;2.95;;
34900;SDS011;21112;51.976;5.660;2022-07-24T08:16:19;7.35;;;3.25;;
34900;SDS011;21112;51.976;5.660;2022-07-24T08:18:45;8.05;;;3.60;;
34900;SDS011;21112;51.976;5.660;2022-07-24T08:21:12;8.20;;;3.20;;
34900;SDS011;21112;51.976;5.660;2022-07-24T08:23:40;6.30;;;2.97;;
34900;SDS011;21112;51.976;5.660;2022-07-24T08:26:06;6.05;;;2.80;;
34900;SDS011;21112;51.976;5.660;2022-07-24T08:28:33;10.05;;;3.63;;
34900;SDS011;21112;51.976;5.660;2022-07-24T08:31:01;9.68;;;3.53;;
34900;SDS011;21112;51.976;5.660;2022-07-24T08:33:28;6.90;;;2.90;;
34900;SDS011;21112;51.976;5.660;2022-07-24T08:35:54;5.60;;;3.00;;
34900;SDS011;21112;51.976;5.660;2022-07-24T08:38:21;10.30;;;3.38;;
34900;SDS011;21112;51.976;5.660;2022-07-24T08:40:48;6.97;;;3.28;;
34900;SDS011;21112;51.976;5.660;2022-07-24T08:43:14;10.50;;;3.53;;
34900;SDS011;21112;51.976;5.660;2022-07-24T08:45:41;8.52;;;3.60;;
34900;SDS011;21112;51.976;5.660;2022-07-24T08:48:10;7.55;;;3.58;;
34900;SDS011;21112;51.976;5.660;2022-07-24T08:50:37;11.55;;;3.38;;
34900;SDS011;21112;51.976;5.660;2022-07-24T08:53:04;8.23;;;3.38;;
34900;SDS011;21112;51.976;5.660;2022-07-24T08:55:31;8.55;;;3.95;;
34900;SDS011;21112;51.976;5.660;2022-07-24T08:58:00;8.60;;;3.17;;
34900;SDS011;21112;51.976;5.660;2022-07-24T09:00:28;9.30;;;3.75;;
34900;SDS011;21112;51.976;5.660;2022-07-24T09:02:55;8.70;;;3.70;;
34900;SDS011;21112;51.976;5.660;2022-07-24T09:05:22;5.07;;;2.50;;
34900;SDS011;21112;51.976;5.660;2022-07-24T09:07:49;10.52;;;3.45;;
34900;SDS011;21112;51.976;5.660;2022-07-24T09:10:16;9.07;;;3.30;;
34900;SDS011;21112;51.976;5.660;2022-07-24T09:12:44;6.72;;;2.70;;
34900;SDS011;21112;51.976;5.660;2022-07-24T09:15:11;8.23;;;3.37;;
34900;SDS011;21112;51.976;5.660;2022-07-24T09:17:46;8.43;;;3.40;;
34900;SDS011;21112;51.976;5.660;2022-07-24T09:20:13;7.82;;;3.45;;
34900;SDS011;21112;51.976;5.660;2022-07-24T09:22:42;9.75;;;3.53;;
34900;SDS011;21112;51.976;5.660;2022-07-24T09:25:11;8.98;;;3.28;;
34900;SDS011;21112;51.976;5.660;2022-07-24T09:27:39;6.20;;;3.17;;
34900;SDS011;21112;51.976;5.660;2022-07-24T09:30:07;5.20;;;2.45;;
34900;SDS011;21112;51.976;5.660;2022-07-24T09:32:34;6.23;;;2.63;;
34900;SDS011;21112;51.976;5.660;2022-07-24T09:35:01;6.80;;;2.58;;
34900;SDS011;21112;51.976;5.660;2022-07-24T09:37:31;6.15;;;2.97;;
34900;SDS011;21112;51.976;5.660;2022-07-24T09:40:10;7.03;;;2.92;;
34900;SDS011;21112;51.976;5.660;2022-07-24T09:42:37;6.03;;;2.67;;
34900;SDS011;21112;51.976;5.660;2022-07-24T09:45:07;7.50;;;2.88;;
34900;SDS011;21112;51.976;5.660;2022-07-24T09:47:36;5.95;;;2.88;;
34900;SDS011;21112;51.976;5.660;2022-07-24T09:50:11;5.30;;;2.55;;
34900;SDS011;21112;51.976;5.660;2022-07-24T09:52:38;7.47;;;2.78;;
34900;SDS011;21112;51.976;5.660;2022-07-24T09:55:09;5.00;;;2.45;;
34900;SDS011;21112;51.976;5.660;2022-07-24T10:00:12;5.83;;;2.40;;
34900;SDS011;21112;51.976;5.660;2022-07-24T10:02:39;6.43;;;2.92;;
34900;SDS011;21112;51.976;5.660;2022-07-24T10:05:09;6.65;;;2.70;;
34900;SDS011;21112;51.976;5.660;2022-07-24T10:07:37;5.70;;;2.50;;
34900;SDS011;21112;51.976;5.660;2022-07-24T10:10:05;9.73;;;2.35;;
34900;SDS011;21112;51.976;5.660;2022-07-24T10:12:34;4.82;;;2.10;;
34900;SDS011;21112;51.976;5.660;2022-07-24T10:15:01;5.57;;;2.60;;
34900;SDS011;21112;51.976;5.660;2022-07-24T10:17:30;5.60;;;2.50;;
34900;SDS011;21112;51.976;5.660;2022-07-24T10:20:00;7.05;;;2.40;;
34900;SDS011;21112;51.976;5.660;2022-07-24T10:22:28;4.65;;;2.08;;
34900;SDS011;21112;51.976;5.660;2022-07-24T10:25:04;5.03;;;2.28;;
34900;SDS011;21112;51.976;5.660;2022-07-24T10:27:34;5.95;;;2.90;;
34900;SDS011;21112;51.976;5.660;2022-07-24T10:30:02;4.93;;;2.30;;
34900;SDS011;21112;51.976;5.660;2022-07-24T10:32:30;3.92;;;2.10;;
34900;SDS011;21112;51.976;5.660;2022-07-24T10:35:09;4.95;;;2.15;;
34900;SDS011;21112;51.976;5.660;2022-07-24T10:37:39;6.40;;;2.17;;
34900;SDS011;21112;51.976;5.660;2022-07-24T10:40:12;5.03;;;2.20;;
34900;SDS011;21112;51.976;5.660;2022-07-24T10:45:30;6.15;;;2.17;;
34900;SDS011;21112;51.976;5.660;2022-07-24T10:47:57;4.25;;;2.38;;
34900;SDS011;21112;51.976;5.660;2022-07-24T10:50:24;4.80;;;2.20;;
34900;SDS011;21112;51.976;5.660;2022-07-24T10:53:21;4.60;;;2.20;;
34900;SDS011;21112;51.976;5.660;2022-07-24T10:55:48;3.38;;;1.92;;
34900;SDS011;21112;51.976;5.660;2022-07-24T10:58:17;4.88;;;2.40;;
34900;SDS011;21112;51.976;5.660;2022-07-24T11:00:47;6.07;;;2.50;;
34900;SDS011;21112;51.976;5.660;2022-07-24T11:03:17;4.38;;;2.00;;
34900;SDS011;21112;51.976;5.660;2022-07-24T11:08:31;5.97;;;2.63;;
34900;SDS011;21112;51.976;5.660;2022-07-24T11:11:06;3.83;;;2.20;;
34900;SDS011;21112;51.976;5.660;2022-07-24T11:13:40;3.72;;;1.92;;
34900;SDS011;21112;51.976;5.660;2022-07-24T11:16:12;4.13;;;1.92;;
34900;SDS011;21112;51.976;5.660;2022-07-24T11:18:39;4.75;;;2.03;;
34900;SDS011;21112;51.976;5.660;2022-07-24T11:21:06;3.50;;;2.00;;
34900;SDS011;21112;51.976;5.660;2022-07-24T11:23:34;3.40;;;1.88;;
34900;SDS011;21112;51.976;5.660;2022-07-24T11:31:27;4.53;;;2.28;;
34900;SDS011;21112;51.976;5.660;2022-07-24T11:33:54;7.43;;;2.33;;
34900;SDS011;21112;51.976;5.660;2022-07-24T11:36:21;5.15;;;2.33;;
34900;SDS011;21112;51.976;5.660;2022-07-24T11:38:49;7.07;;;2.80;;
34900;SDS011;21112;51.976;5.660;2022-07-24T11:41:16;4.40;;;2.40;;
34900;SDS011;21112;51.976;5.660;2022-07-24T11:43:49;4.93;;;2.35;;
34900;SDS011;21112;51.976;5.660;2022-07-24T11:46:17;5.45;;;2.30;;
34900;SDS011;21112;51.976;5.660;2022-07-24T11:49:01;5.72;;;2.28;;
34900;SDS011;21112;51.976;5.660;2022-07-24T11:51:27;3.78;;;1.73;;
34900;SDS011;21112;51.976;5.660;2022-07-24T11:53:56;3.97;;;1.70;;
34900;SDS011;21112;51.976;5.660;2022-07-24T11:56:23;4.47;;;2.10;;
34900;SDS011;21112;51.976;5.660;2022-07-24T11:58:50;3.78;;;2.00;;
34900;SDS011;21112;51.976;5.660;2022-07-24T12:01:20;4.20;;;2.08;;
34900;SDS011;21112;51.976;5.660;2022-07-24T12:03:50;3.97;;;2.00;;
34900;SDS011;21112;51.976;5.660;2022-07-24T12:06:18;4.43;;;2.10;;
34900;SDS011;21112;51.976;5.660;2022-07-24T12:08:45;5.53;;;2.60;;
34900;SDS011;21112;51.976;5.660;2022-07-24T12:11:15;4.45;;;2.20;;
34900;SDS011;21112;51.976;5.660;2022-07-24T12:13:45;6.65;;;1.95;;
34900;SDS011;21112;51.976;5.660;2022-07-24T12:16:14;3.50;;;1.77;;
34900;SDS011;21112;51.976;5.660;2022-07-24T12:18:41;3.50;;;2.00;;
34900;SDS011;21112;51.976;5.660;2022-07-24T12:21:09;4.32;;;1.98;;
34900;SDS011;21112;51.976;5.660;2022-07-24T12:23:37;5.75;;;2.72;;
34900;SDS011;21112;51.976;5.660;2022-07-24T12:26:04;5.28;;;2.85;;
34900;SDS011;21112;51.976;5.660;2022-07-24T12:28:32;4.68;;;2.05;;
34900;SDS011;21112;51.976;5.660;2022-07-24T12:30:59;3.42;;;2.00;;
34900;SDS011;21112;51.976;5.660;2022-07-24T12:33:32;3.67;;;1.65;;
34900;SDS011;21112;51.976;5.660;2022-07-24T12:35:59;3.10;;;1.58;;
34900;SDS011;21112;51.976;5.660;2022-07-24T12:38:26;3.85;;;1.88;;
34900;SDS011;21112;51.976;5.660;2022-07-24T12:41:03;3.65;;;1.77;;
34900;SDS011;21112;51.976;5.660;2022-07-24T12:43:32;5.70;;;2.00;;
34900;SDS011;21112;51.976;5.660;2022-07-24T12:46:05;3.13;;;1.88;;
34900;SDS011;21112;51.976;5.660;2022-07-24T12:48:33;3.03;;;1.77;;
34900;SDS011;21112;51.976;5.660;2022-07-24T12:51:01;2.90;;;1.80;;
34900;SDS011;21112;51.976;5.660;2022-07-24T12:53:29;4.30;;;2.05;;
34900;SDS011;21112;51.976;5.660;2022-07-24T12:56:00;3.70;;;1.75;;
34900;SDS011;21112;51.976;5.660;2022-07-24T12:58:28;4.65;;;2.08;;
34900;SDS011;21112;51.976;5.660;2022-07-24T13:00:59;3.78;;;1.88;;
34900;SDS011;21112;51.976;5.660;2022-07-24T13:03:26;3.88;;;1.90;;
34900;SDS011;21112;51.976;5.660;2022-07-24T13:05:54;3.72;;;1.88;;
34900;SDS011;21112;51.976;5.660;2022-07-24T13:08:21;3.42;;;1.80;;
34900;SDS011;21112;51.976;5.660;2022-07-24T13:10:48;5.55;;;2.00;;
34900;SDS011;21112;51.976;5.660;2022-07-24T13:13:15;5.93;;;1.73;;
34900;SDS011;21112;51.976;5.660;2022-07-24T13:15:42;2.20;;;1.52;;
34900;SDS011;21112;51.976;5.660;2022-07-24T13:18:10;3.97;;;1.77;;
34900;SDS011;21112;51.976;5.660;2022-07-24T13:23:03;6.07;;;1.70;;
34900;SDS011;21112;51.976;5.660;2022-07-24T13:25:29;3.80;;;1.85;;
34900;SDS011;21112;51.976;5.660;2022-07-24T13:27:56;4.03;;;2.03;;
34900;SDS011;21112;51.976;5.660;2022-07-24T13:30:23;5.65;;;2.10;;
34900;SDS011;21112;51.976;5.660;2022-07-24T13:32:49;5.60;;;1.80;;
34900;SDS011;21112;51.976;5.660;2022-07-24T13:35:17;2.97;;;1.60;;
34900;SDS011;21112;51.976;5.660;2022-07-24T13:37:44;4.47;;;1.90;;
34900;SDS011;21112;51.976;5.660;2022-07-24T13:40:11;3.03;;;1.77;;
34900;SDS011;21112;51.976;5.660;2022-07-24T13:42:39;6.47;;;1.70;;
34900;SDS011;21112;51.976;5.660;2022-07-24T13:45:06;4.43;;;1.83;;
34900;SDS011;21112;51.976;5.660;2022-07-24T13:47:33;4.53;;;1.73;;
34900;SDS011;21112;51.976;5.660;2022-07-24T13:50:00;5.95;;;1.73;;
34900;SDS011;21112;51.976;5.660;2022-07-24T13:52:28;4.28;;;1.65;;
34900;SDS011;21112;51.976;5.660;2022-07-24T13:57:21;3.55;;;1.70;;
34900;SDS011;21112;51.976;5.660;2022-07-24T13:59:47;9.05;;;1.60;;
34900;SDS011;21112;51.976;5.660;2022-07-24T14:02:14;5.07;;;1.67;;
34900;SDS011;21112;51.976;5.660;2022-07-24T14:04:41;4.82;;;1.70;;
34900;SDS011;21112;51.976;5.660;2022-07-24T14:07:09;2.60;;;1.48;;
34900;SDS011;21112;51.976;5.660;2022-07-24T14:09:37;2.00;;;1.35;;
34900;SDS011;21112;51.976;5.660;2022-07-24T14:12:04;2.40;;;1.58;;
34900;SDS011;21112;51.976;5.660;2022-07-24T14:14:31;7.78;;;1.80;;
34900;SDS011;21112;51.976;5.660;2022-07-24T14:17:04;3.40;;;1.65;;
34900;SDS011;21112;51.976;5.660;2022-07-24T14:19:31;3.30;;;1.52;;
34900;SDS011;21112;51.976;5.660;2022-07-24T14:21:58;5.83;;;1.70;;
34900;SDS011;21112;51.976;5.660;2022-07-24T14:24:25;3.53;;;1.52;;
34900;SDS011;21112;51.976;5.660;2022-07-24T14:26:53;2.95;;;1.67;;
34900;SDS011;21112;51.976;5.660;2022-07-24T14:29:20;4.78;;;1.80;;
34900;SDS011;21112;51.976;5.660;2022-07-24T14:31:47;2.92;;;1.60;;
34900;SDS011;21112;51.976;5.660;2022-07-24T14:34:13;3.72;;;1.80;;
34900;SDS011;21112;51.976;5.660;2022-07-24T14:36:40;3.10;;;1.70;;
34900;SDS011;21112;51.976;5.660;2022-07-24T14:39:07;5.25;;;1.55;;
34900;SDS011;21112;51.976;5.660;2022-07-24T14:41:34;3.07;;;1.60;;
34900;SDS011;21112;51.976;5.660;2022-07-24T14:44:02;3.78;;;1.60;;
34900;SDS011;21112;51.976;5.660;2022-07-24T14:48:57;3.22;;;1.67;;
34900;SDS011;21112;51.976;5.660;2022-07-24T14:51:23;2.78;;;1.55;;
34900;SDS011;21112;51.976;5.660;2022-07-24T14:53:51;2.55;;;1.55;;
34900;SDS011;21112;51.976;5.660;2022-07-24T14:56:18;2.42;;;1.58;;
34900;SDS011;21112;51.976;5.660;2022-07-24T14:58:44;3.78;;;1.80;;
34900;SDS011;21112;51.976;5.660;2022-07-24T15:01:13;4.25;;;2.03;;
34900;SDS011;21112;51.976;5.660;2022-07-24T15:03:40;2.63;;;1.77;;
34900;SDS011;21112;51.976;5.660;2022-07-24T15:06:07;6.57;;;1.92;;
34900;SDS011;21112;51.976;5.660;2022-07-24T15:08:34;6.03;;;1.67;;
34900;SDS011;21112;51.976;5.660;2022-07-24T15:11:01;3.30;;;1.67;;
34900;SDS011;21112;51.976;5.660;2022-07-24T15:13:28;2.22;;;1.50;;
34900;SDS011;21112;51.976;5.660;2022-07-24T15:15:54;4.93;;;1.88;;
34900;SDS011;21112;51.976;5.660;2022-07-24T15:18:23;3.38;;;1.50;;
34900;SDS011;21112;51.976;5.660;2022-07-24T15:20:50;3.22;;;2.05;;